Language selection

My Weather Profile Weather Topics  | 

Pacific - North Coast: Past 24 Hour Conditions

 

South Moresby - 46147

10:00 AM PST 27 November 2022Buoy position: 51.83N 131.23W
Disclaimer

This table is a summary of hourly weather conditions for the past 24 hours.
Please note that these observations might not always be representative of weather conditions over their associated marine area.

Date / Time
(PST)
Wind(knots) Wave height(m) Wave period(s) Pressure(kPa) Air tempC) Water tempC)
27 November 2022
10:00 N 13 gust 16 6.1 12.8 101.5 6 8
9:00 N 14 gust 18 6.2 12.2 101.5 6 8
8:00 NW 19 gust 29 6.3 12.2 101.4 7 8
7:00 WNW 24 gust 31 6.2 12.8 101.3 7 8
6:00 WNW 23 gust 29 5.9 12.2 101.3 7 8
5:00 WNW 25 gust 32 5.7 12.8 101.3 7 8
4:00 WNW 22 gust 29 6.1 11.1 101.4 5 8
3:00 WNW 24 gust 32 5.8 11.6 101.4 5 8
2:00 WNW 23 gust 30 5.9 11.6 101.4 6 8
1:00 W 22 gust 28 6.3 10.7 101.5 7 8
0:00 WNW 23 gust 29 6.3 11.6 101.5 7 8
26 November 2022
23:00 WNW 18 N/A N/A 101.5 6 N/A
22:00 W 24 gust 32 5.6 11.6 101.5 5 8
21:00 WNW 22 gust 30 5.6 11.6 101.5 6 8
20:00 W 26 gust 34 5.9 11.6 101.5 5 8
19:00 WNW 25 gust 32 5.9 11.6 101.5 6 8
18:00 WNW 25 gust 34 6.0 11.6 101.5 6 8
17:00 WNW 25 gust 33 5.9 11.6 101.4 7 8
16:00 W 29 gust 35 5.5 10.2 101.3 7 8
15:00 W 24 N/A N/A N/A N/A N/A
14:00 WNW 25 gust 32 4.7 10.7 101.3 7 8
13:00 WNW 29 gust 36 5.0 11.1 101.2 7 9
12:00 WNW 29 gust 36 5.1 10.2 101.2 7 9
11:00 W 23 gust 30 5.1 11.1 101.2 9 9
10:00 SW 27 gust 33 4.7 10.2 101.1 9 9

Zoom-in to make a selection

Map of Pacific - North Coast marine weather areas Middle Nomad - 46004 South Nomad - 46036 Dixon Entrance Central - 46145 South Moresby - 46147 Nanakwa Shoal - 46181 North Hecate Strait - 46183 North Nomad - 46184 South Hecate Strait - 46185 West Sea Otter - 46204 West Dixon Entrance - 46205 East Dellwood - 46207 West Moresby - 46208 Sartine Island Cape St.James Kindakun Rocks Langara Island Masset Municipal Airport Rose Spit Sandspit Airport Bella Bella Airport Bella Coola Airport Bonilla Island Cathedral Point Cumshewa Island Grey Islet Holland Rock Lucy Islands Lightstation Prince Rupert Airport
Legend:
buoy Buoy
land station Land Station

Pacific - North Coast Area

Another Region

What we are doing

Date modified: